Londonderry, United Kingdom
Current Conditions -  °F | °C
As of 4:20 PM on Tuesday 21 Oct 2014 (Local Time) from EGAE Reporting Station
Rain Showers Rain Showers  
Wind Chill: 41°   Ceiling: Unl
Heat Index: 48°   Visibility: 6mi
Dew Point: 39°   Wind: 22mph
Humidity: 71%   Direction: 310°NW
Pressure: 29.97"   Gusts: 38mph
Location:  54.99°N, 7.31°W
Report Text: EGAE 211520Z 31019G33KT 9999 VCSH FEW025CB SCT044 09/04 Q1015
Loading
Personal Weather Stations






























Interactive Weather Map
Tropical Storm Tracking
New forecast layout! Learn more

10-Day Weather Forecast

Advertisements
Track Severe Weather on mobile